createdAt,value
2022-09-07T00:00:00.292Z,55.51
2022-09-07T00:01:00.263Z,55.62
2022-09-07T00:02:00.231Z,55.71
2022-09-07T00:03:00.337Z,55.82
2022-09-07T00:04:00.265Z,55.82
2022-09-07T00:05:00.245Z,55.91
2022-09-07T00:06:00.211Z,55.62
2022-09-07T00:07:00.921Z,55.51
2022-09-07T00:08:00.199Z,55.62
2022-09-07T00:09:00.159Z,55.62
2022-09-07T00:10:00.192Z,55.62
2022-09-07T00:11:00.132Z,55.31
2022-09-07T00:12:00.121Z,55.41
2022-09-07T00:13:00.102Z,55.51
2022-09-07T00:14:00.098Z,55.62
2022-09-07T00:15:00.074Z,55.71
2022-09-07T00:16:00.108Z,55.71
2022-09-07T00:17:00.051Z,55.91
2022-09-07T00:18:00.034Z,55.82
2022-09-07T00:19:00.020Z,56.12
2022-09-07T00:20:00.022Z,56.15
2022-09-07T00:20:59.993Z,55.74
2022-09-07T00:21:59.981Z,56.15
2022-09-07T00:22:59.973Z,56.04
2022-09-07T00:23:59.960Z,56.24
2022-09-07T00:24:59.982Z,56.35
2022-09-07T00:25:59.930Z,56.24
2022-09-07T00:26:59.901Z,56.75
2022-09-07T00:27:59.909Z,56.55
2022-09-07T00:28:59.969Z,56.65
2022-09-07T00:29:59.889Z,56.65
2022-09-07T00:30:59.953Z,56.98
2022-09-07T00:31:59.847Z,56.98
2022-09-07T00:32:59.842Z,57.08
2022-09-07T00:33:59.829Z,56.98
2022-09-07T00:34:59.809Z,57.08
2022-09-07T00:35:59.817Z,57.08
2022-09-07T00:36:59.780Z,57.28
2022-09-07T00:37:59.793Z,57.48
2022-09-07T00:38:59.773Z,57.38
2022-09-07T00:39:59.821Z,57.48
2022-09-07T00:40:59.759Z,57.21
2022-09-07T00:41:59.733Z,57.31
2022-09-07T00:42:59.735Z,57.51
2022-09-07T00:43:59.721Z,57.51
2022-09-07T00:44:59.873Z,57.71
2022-09-07T00:45:59.687Z,57.41
2022-09-07T00:46:59.695Z,57.81
2022-09-07T00:47:59.678Z,57.61
2022-09-07T00:48:59.639Z,57.51
2022-09-07T00:49:59.622Z,57.61
2022-09-07T00:50:59.618Z,57.81
2022-09-07T00:51:59.598Z,57.91
2022-09-07T00:52:59.725Z,57.71
2022-09-07T00:53:59.557Z,58.12
2022-09-07T00:54:59.577Z,57.64
2022-09-07T00:55:59.558Z,57.74
2022-09-07T00:56:59.558Z,57.64
2022-09-07T00:57:59.535Z,57.74
2022-09-07T00:58:59.508Z,57.64
2022-09-07T00:59:59.506Z,57.74
2022-09-07T01:00:59.485Z,57.84
2022-09-07T01:01:59.657Z,57.64
2022-09-07T01:02:59.626Z,57.94
2022-09-07T01:03:59.478Z,57.74
2022-09-07T01:04:59.426Z,57.94
2022-09-07T01:05:59.448Z,58.25
2022-09-07T01:06:59.479Z,58.04
2022-09-07T01:07:59.400Z,58.34
2022-09-07T01:08:59.385Z,57.94
2022-09-07T01:09:59.385Z,57.94
2022-09-07T01:10:59.419Z,58.25
2022-09-07T01:11:59.406Z,58.07
2022-09-07T01:12:59.335Z,57.97
2022-09-07T01:13:59.370Z,57.97
2022-09-07T01:14:59.439Z,58.07
2022-09-07T01:15:59.296Z,58.17
2022-09-07T01:16:59.295Z,58.07
2022-09-07T01:17:59.286Z,58.27
2022-09-07T01:18:59.310Z,58.37
2022-09-07T01:19:59.236Z,58.27
2022-09-07T01:20:59.220Z,58.47
2022-09-07T01:21:59.234Z,58.58
2022-09-07T01:22:59.253Z,58.47
2022-09-07T01:23:59.184Z,58.27
2022-09-07T01:24:59.181Z,58.67
2022-09-07T01:25:59.153Z,58.58
2022-09-07T01:26:59.140Z,58.47
2022-09-07T01:27:59.134Z,58.91
2022-09-07T01:28:59.131Z,58.67
2022-09-07T01:29:59.115Z,58.91
2022-09-07T01:30:59.645Z,58.91
2022-09-07T01:31:59.074Z,58.70
2022-09-07T01:32:59.074Z,58.80
2022-09-07T01:33:59.231Z,59.00
2022-09-07T01:34:59.063Z,59.11
2022-09-07T01:35:59.067Z,58.91
2022-09-07T01:36:59.006Z,59.00
2022-09-07T01:37:59.142Z,59.11
2022-09-07T01:38:58.985Z,59.41
2022-09-07T01:39:59.132Z,59.31
2022-09-07T01:40:59.163Z,59.21
2022-09-07T01:41:58.944Z,59.21
2022-09-07T01:42:58.941Z,59.31
2022-09-07T01:43:58.924Z,59.31
2022-09-07T01:44:58.910Z,59.34
2022-09-07T01:45:59.898Z,59.41
2022-09-07T01:46:58.889Z,59.51
2022-09-07T01:47:58.882Z,59.51
2022-09-07T01:48:58.851Z,59.61
2022-09-07T01:49:58.832Z,59.41
2022-09-07T01:50:58.831Z,59.64
2022-09-07T01:51:58.814Z,59.64
2022-09-07T01:52:58.793Z,59.54
2022-09-07T01:53:58.802Z,59.74
2022-09-07T01:54:58.833Z,60.05
2022-09-07T01:55:58.839Z,60.25
2022-09-07T01:56:58.868Z,60.05
2022-09-07T01:57:58.741Z,60.45
2022-09-07T01:58:58.720Z,60.14
2022-09-07T01:59:58.703Z,60.05
2022-09-07T02:00:58.700Z,60.05
2022-09-07T02:01:58.965Z,60.25
2022-09-07T02:02:58.752Z,60.25
2022-09-07T02:03:58.693Z,60.25
2022-09-07T02:04:58.745Z,60.35
2022-09-07T02:05:58.647Z,60.45
2022-09-07T02:06:58.637Z,60.45
2022-09-07T02:07:58.935Z,60.25
2022-09-07T02:08:58.591Z,60.55
2022-09-07T02:09:58.587Z,60.65
2022-09-07T02:10:58.582Z,60.58
2022-09-07T02:11:58.549Z,60.48
2022-09-07T02:12:58.530Z,60.68
2022-09-07T02:13:58.551Z,61.08
2022-09-07T02:14:58.507Z,60.78
2022-09-07T02:15:58.526Z,60.98
2022-09-07T02:16:58.478Z,60.98
2022-09-07T02:17:58.470Z,61.08
2022-09-07T02:18:58.459Z,60.78
2022-09-07T02:19:58.439Z,60.98
2022-09-07T02:20:58.441Z,61.08
2022-09-07T02:21:58.407Z,61.29
2022-09-07T02:22:58.396Z,61.19
2022-09-07T02:23:58.389Z,61.19
2022-09-07T02:24:58.385Z,61.59
2022-09-07T02:25:58.407Z,61.29
2022-09-07T02:26:58.373Z,61.39
2022-09-07T02:27:58.356Z,61.69
2022-09-07T02:30:05.655Z,61.69
2022-09-07T02:31:07.317Z,61.69
2022-09-07T02:32:07.255Z,61.69
2022-09-07T02:33:05.465Z,61.69
2022-09-07T02:34:05.829Z,61.90
2022-09-07T02:35:05.437Z,62.02
2022-09-07T02:36:05.466Z,61.90
2022-09-07T02:37:05.423Z,61.99
2022-09-07T02:38:05.445Z,61.92
2022-09-07T02:39:05.392Z,61.82
2022-09-07T02:40:05.433Z,62.02
2022-09-07T02:41:05.373Z,62.23
2022-09-07T02:42:05.413Z,61.92
2022-09-07T02:43:05.372Z,62.02
2022-09-07T02:44:05.323Z,62.12
2022-09-07T02:45:05.311Z,62.12
2022-09-07T02:46:05.337Z,62.12
2022-09-07T02:47:05.283Z,62.12
2022-09-07T02:48:05.271Z,62.12
2022-09-07T02:49:05.262Z,62.23
2022-09-07T02:50:05.332Z,62.33
2022-09-07T02:51:05.233Z,62.23
2022-09-07T02:52:05.210Z,62.33
2022-09-07T02:53:05.221Z,62.26
2022-09-07T02:54:05.200Z,62.35
2022-09-07T02:55:05.192Z,62.23
2022-09-07T02:56:05.212Z,62.33
2022-09-07T02:57:05.166Z,62.26
2022-09-07T02:58:05.154Z,62.33
2022-09-07T02:59:05.132Z,62.56
2022-09-07T03:00:05.139Z,62.56
2022-09-07T03:01:05.193Z,62.66
2022-09-07T03:02:05.132Z,62.46
2022-09-07T03:03:05.095Z,62.76
2022-09-07T03:04:05.060Z,62.66
2022-09-07T03:05:05.051Z,62.56
2022-09-07T03:06:05.062Z,62.46
2022-09-07T03:07:05.031Z,62.56
2022-09-07T03:08:05.021Z,62.86
2022-09-07T03:09:05.020Z,62.86
2022-09-07T03:10:05.057Z,62.76
2022-09-07T03:11:05.008Z,62.86
2022-09-07T03:12:04.980Z,62.96
2022-09-07T03:13:04.951Z,63.17
2022-09-07T03:14:04.955Z,63.27
2022-09-07T03:15:04.927Z,63.17
2022-09-07T03:16:05.015Z,63.47
2022-09-07T03:17:04.908Z,63.37
2022-09-07T03:18:04.907Z,63.67
2022-09-07T03:19:04.948Z,63.57
2022-09-07T03:20:04.870Z,63.37
2022-09-07T03:21:04.863Z,63.47
2022-09-07T03:22:04.838Z,63.67
2022-09-07T03:23:04.907Z,63.47
2022-09-07T03:24:04.827Z,63.87
2022-09-07T03:25:04.787Z,63.98
2022-09-07T03:26:04.795Z,63.78
2022-09-07T03:27:04.798Z,64.18
2022-09-07T03:28:04.898Z,64.38
2022-09-07T03:29:04.857Z,63.87
2022-09-07T03:30:04.762Z,63.78
2022-09-07T03:31:04.752Z,64.01
2022-09-07T03:32:04.728Z,63.90
2022-09-07T03:33:04.693Z,64.01
2022-09-07T03:34:04.693Z,64.41
2022-09-07T03:35:04.704Z,64.31
2022-09-07T03:36:04.662Z,64.01
2022-09-07T03:37:04.660Z,64.21
2022-09-07T03:38:04.645Z,64.21
2022-09-07T03:39:04.748Z,64.41
2022-09-07T03:40:04.652Z,64.31
2022-09-07T03:41:04.627Z,64.21
2022-09-07T03:42:04.613Z,64.21
2022-09-07T03:43:04.566Z,64.51
2022-09-07T03:44:04.586Z,64.41
2022-09-07T03:45:04.569Z,64.31
2022-09-07T03:46:04.677Z,64.31
2022-09-07T03:47:04.526Z,64.31
2022-09-07T03:48:04.503Z,64.31
2022-09-07T03:49:04.523Z,64.41
2022-09-07T03:50:04.474Z,64.51
2022-09-07T03:51:04.486Z,64.31
2022-09-07T03:52:04.472Z,64.51
2022-09-07T03:53:04.464Z,64.61
2022-09-07T03:54:04.462Z,64.72
2022-09-07T03:55:04.402Z,64.51
2022-09-07T03:56:04.403Z,64.61
2022-09-07T03:57:04.392Z,64.72
2022-09-07T03:58:04.392Z,64.51
2022-09-07T03:59:04.415Z,64.61
2022-09-07T04:00:04.362Z,64.61
2022-09-07T04:01:04.469Z,64.95
2022-09-07T04:02:04.431Z,64.75
2022-09-07T04:03:04.424Z,64.85
2022-09-07T04:04:04.353Z,64.85
2022-09-07T04:05:04.299Z,64.95
2022-09-07T04:06:04.273Z,65.05
2022-09-07T04:07:04.326Z,65.05
2022-09-07T04:08:04.247Z,65.36
2022-09-07T04:09:04.253Z,65.15
2022-09-07T04:10:04.279Z,65.25
2022-09-07T04:11:04.313Z,65.15
2022-09-07T04:12:04.235Z,65.25
2022-09-07T04:13:04.213Z,65.22
2022-09-07T04:14:04.184Z,65.15
2022-09-07T04:15:04.181Z,65.42
2022-09-07T04:16:04.141Z,65.25
2022-09-07T04:17:04.159Z,65.36
2022-09-07T04:18:04.142Z,65.36
2022-09-07T04:19:04.300Z,65.66
2022-09-07T04:20:04.134Z,65.76
2022-09-07T04:21:04.103Z,65.86
2022-09-07T04:22:04.052Z,65.66
2022-09-07T04:23:04.064Z,65.86
2022-09-07T04:24:04.048Z,65.96
2022-09-07T04:25:04.065Z,65.76
2022-09-07T04:26:04.006Z,66.06
2022-09-07T04:27:04.031Z,66.06
2022-09-07T04:28:04.013Z,66.06
2022-09-07T04:29:03.975Z,65.96
2022-09-07T04:30:04.095Z,65.96
2022-09-07T04:31:04.095Z,66.16
2022-09-07T04:32:03.928Z,66.06
2022-09-07T04:33:04.049Z,66.37
2022-09-07T04:34:03.902Z,66.16
2022-09-07T04:35:03.931Z,66.37
2022-09-07T04:36:03.896Z,66.06
2022-09-07T04:37:03.854Z,66.06
2022-09-07T04:38:03.893Z,66.16
2022-09-07T04:39:03.851Z,66.47
2022-09-07T04:40:04.010Z,66.16
2022-09-07T04:41:03.838Z,66.37
2022-09-07T04:42:03.807Z,66.16
2022-09-07T04:43:03.874Z,66.37
2022-09-07T04:44:03.807Z,66.37
2022-09-07T04:45:03.792Z,66.06
2022-09-07T04:46:04.010Z,66.06
2022-09-07T04:47:03.733Z,66.06
2022-09-07T04:48:03.724Z,65.96
2022-09-07T04:49:03.730Z,66.16
2022-09-07T04:50:03.713Z,66.06
2022-09-07T04:51:05.813Z,66.37
2022-09-07T04:52:03.655Z,66.27
2022-09-07T04:53:03.682Z,66.40
2022-09-07T04:54:03.660Z,66.50
2022-09-07T04:55:03.661Z,66.60
2022-09-07T04:56:03.627Z,66.60
2022-09-07T04:57:03.626Z,66.60
2022-09-07T04:58:03.602Z,66.60
2022-09-07T04:59:03.597Z,67.00
2022-09-07T05:00:03.644Z,66.97
2022-09-07T05:01:03.818Z,66.47
2022-09-07T05:02:03.658Z,66.67
2022-09-07T05:03:03.729Z,66.60
2022-09-07T05:04:03.651Z,66.60
2022-09-07T05:05:03.553Z,66.70
2022-09-07T05:06:03.556Z,66.70
2022-09-07T05:07:03.694Z,66.80
2022-09-07T05:08:03.778Z,66.91
2022-09-07T05:09:03.694Z,66.91
2022-09-07T05:10:03.480Z,67.00
2022-09-07T05:11:03.954Z,66.80
2022-09-07T05:12:03.695Z,67.21
2022-09-07T05:13:03.822Z,67.41
2022-09-07T05:14:04.254Z,66.88
2022-09-07T05:15:03.565Z,66.67
2022-09-07T05:16:03.444Z,66.91
2022-09-07T05:17:03.490Z,67.31
2022-09-07T05:18:03.393Z,66.91
2022-09-07T05:19:03.406Z,67.18
2022-09-07T05:20:03.378Z,67.28
2022-09-07T05:21:03.423Z,67.28
2022-09-07T05:22:03.296Z,66.97
2022-09-07T05:23:03.282Z,66.77
2022-09-07T05:24:03.240Z,66.77
2022-09-07T05:25:03.261Z,66.77
2022-09-07T05:26:03.229Z,66.88
2022-09-07T05:27:03.205Z,66.88
2022-09-07T05:28:03.197Z,66.97
2022-09-07T05:30:05.114Z,66.88
2022-09-07T05:31:19.473Z,66.77
2022-09-07T05:32:04.172Z,66.64
2022-09-07T05:33:03.135Z,66.74
2022-09-07T05:35:04.126Z,66.64
2022-09-07T05:36:03.086Z,66.24
2022-09-07T05:37:03.073Z,66.54
2022-09-07T05:38:03.051Z,66.94
2022-09-07T05:39:03.058Z,66.74
2022-09-07T05:40:03.113Z,66.54
2022-09-07T05:41:03.020Z,66.74
2022-09-07T05:42:03.032Z,66.74
2022-09-07T05:43:03.217Z,66.50
2022-09-07T05:45:04.009Z,66.10
2022-09-07T05:46:02.974Z,66.33
2022-09-07T05:47:02.991Z,66.54
2022-09-07T05:48:02.942Z,66.54
2022-09-07T05:49:02.911Z,66.44
2022-09-07T05:50:02.928Z,66.74
2022-09-07T05:51:02.964Z,66.61
2022-09-07T05:52:03.027Z,66.61
2022-09-07T05:53:02.984Z,66.30
2022-09-07T05:54:02.908Z,66.30
2022-09-07T05:55:26.289Z,66.50
2022-09-07T05:56:07.040Z,66.30
2022-09-07T05:57:02.875Z,66.27
2022-09-07T05:58:02.808Z,65.87
2022-09-07T05:59:02.834Z,65.77
2022-09-07T06:00:02.869Z,65.77
2022-09-07T06:01:02.802Z,65.97
2022-09-07T06:02:02.990Z,66.17
2022-09-07T06:03:02.902Z,65.87
2022-09-07T06:04:02.738Z,65.67
2022-09-07T06:05:02.817Z,65.94
2022-09-07T06:06:02.744Z,65.73
2022-09-07T06:07:21.142Z,65.33
2022-09-07T06:08:03.696Z,65.33
2022-09-07T06:09:02.752Z,65.23
2022-09-07T06:11:03.639Z,65.43
2022-09-07T06:12:02.637Z,65.53
2022-09-07T06:13:02.618Z,65.73
2022-09-07T06:14:02.663Z,65.73
2022-09-07T06:15:02.587Z,65.53
2022-09-07T06:16:02.578Z,65.40
2022-09-07T06:17:02.559Z,65.40
2022-09-07T06:18:02.559Z,65.10
2022-09-07T06:19:02.540Z,65.27
2022-09-07T06:20:02.531Z,64.87
2022-09-07T06:21:02.573Z,64.67
2022-09-07T06:22:02.501Z,64.46
2022-09-07T06:23:02.597Z,64.76
2022-09-07T06:24:02.466Z,64.56
2022-09-07T06:25:02.490Z,64.76
2022-09-07T06:26:02.653Z,64.43
2022-09-07T06:27:02.429Z,64.13
2022-09-07T06:28:02.424Z,64.13
2022-09-07T06:29:02.406Z,63.93
2022-09-07T06:30:02.432Z,64.23
2022-09-07T06:31:02.413Z,64.33
2022-09-07T06:33:03.566Z,64.00
2022-09-07T06:34:02.343Z,64.00
2022-09-07T06:35:02.390Z,63.70
2022-09-07T06:36:02.392Z,64.00
2022-09-07T06:37:02.376Z,63.90
2022-09-07T06:38:02.315Z,63.96
2022-09-07T06:39:02.329Z,63.96
2022-09-07T06:40:02.288Z,63.87
2022-09-07T06:42:03.227Z,63.87
2022-09-07T06:43:02.220Z,63.90
2022-09-07T06:44:02.265Z,63.87
2022-09-07T06:45:02.195Z,64.00
2022-09-07T06:47:03.700Z,63.90
2022-09-07T06:48:02.165Z,64.10
2022-09-07T06:49:02.154Z,64.10
2022-09-07T06:50:02.139Z,64.20
2022-09-07T06:51:02.134Z,64.30
2022-09-07T06:52:02.123Z,64.10
2022-09-07T06:55:03.142Z,64.50
2022-09-07T06:56:02.047Z,64.40
2022-09-07T06:57:02.056Z,64.30
2022-09-07T06:58:02.035Z,64.47
2022-09-07T06:59:02.018Z,64.37
2022-09-07T07:00:02.038Z,64.07
2022-09-07T07:01:02.074Z,64.07
2022-09-07T07:02:02.013Z,63.87
2022-09-07T07:03:02.143Z,63.96
2022-09-07T07:04:01.971Z,64.17
2022-09-07T07:05:01.972Z,64.47
2022-09-07T07:06:01.953Z,64.37
2022-09-07T07:07:01.945Z,64.37
2022-09-07T07:08:01.938Z,64.37
2022-09-07T07:09:01.898Z,64.47
2022-09-07T07:10:01.906Z,64.27
2022-09-07T07:11:01.850Z,63.93
2022-09-07T07:12:01.851Z,64.07
2022-09-07T07:13:01.886Z,64.14
2022-09-07T07:14:01.855Z,64.24
2022-09-07T07:15:01.907Z,64.24
2022-09-07T07:16:01.841Z,63.93
2022-09-07T07:17:01.781Z,64.24
2022-09-07T07:18:19.300Z,64.24
2022-09-07T07:19:02.773Z,64.04
2022-09-07T07:20:01.770Z,64.04
2022-09-07T07:21:01.779Z,64.24
2022-09-07T07:23:02.709Z,63.93
2022-09-07T07:24:06.219Z,63.90
2022-09-07T07:25:02.727Z,63.73
2022-09-07T07:26:01.686Z,64.11
2022-09-07T07:27:01.690Z,64.01
2022-09-07T07:29:03.677Z,63.81
2022-09-07T07:30:01.621Z,63.78
2022-09-07T07:31:03.966Z,63.47
2022-09-07T07:32:02.594Z,63.34
2022-09-07T07:33:01.621Z,63.24
2022-09-07T07:34:01.643Z,63.14
2022-09-07T07:35:01.569Z,63.24
2022-09-07T07:36:01.553Z,62.94
2022-09-07T07:37:01.539Z,63.14
2022-09-07T07:39:03.019Z,62.71
2022-09-07T07:40:19.122Z,62.61
2022-09-07T07:42:03.454Z,62.81
2022-09-07T07:43:01.456Z,63.01
2022-09-07T07:44:01.462Z,63.11
2022-09-07T07:46:05.494Z,63.21
2022-09-07T07:47:01.477Z,63.31
2022-09-07T07:48:01.383Z,63.11
2022-09-07T07:49:01.452Z,63.11
2022-09-07T07:51:06.426Z,63.21
2022-09-07T07:54:02.317Z,63.21
2022-09-07T07:55:01.368Z,63.24
2022-09-07T07:56:02.278Z,63.14
2022-09-07T07:57:01.290Z,63.21
2022-09-07T07:58:01.241Z,63.11
2022-09-07T07:59:01.255Z,63.11
2022-09-07T08:00:01.238Z,63.01
2022-09-07T08:01:01.296Z,62.68
2022-09-07T08:02:01.321Z,62.78
2022-09-07T08:03:01.194Z,62.58
2022-09-07T08:04:01.186Z,62.48
2022-09-07T08:05:01.262Z,62.58
2022-09-07T08:06:01.167Z,62.35
2022-09-07T08:07:04.431Z,62.35
2022-09-07T08:08:02.138Z,62.65
2022-09-07T08:09:01.150Z,62.55
2022-09-07T08:10:01.131Z,62.65
2022-09-07T08:11:01.102Z,62.65
2022-09-07T08:12:01.146Z,62.55
2022-09-07T08:13:01.056Z,62.75
2022-09-07T08:14:01.067Z,62.42
2022-09-07T08:15:01.110Z,62.45
2022-09-07T08:16:01.093Z,62.62
2022-09-07T08:17:01.025Z,62.72
2022-09-07T08:18:01.040Z,62.12
2022-09-07T08:19:01.083Z,62.52
2022-09-07T08:20:00.974Z,62.32
2022-09-07T08:21:00.970Z,62.22
2022-09-07T08:22:00.979Z,62.52
2022-09-07T08:23:00.931Z,62.52
2022-09-07T08:24:00.933Z,62.52
2022-09-07T08:25:00.951Z,62.42
2022-09-07T08:26:00.897Z,62.52
2022-09-07T08:27:00.884Z,62.29
2022-09-07T08:28:00.906Z,62.08
2022-09-07T08:29:00.862Z,62.19
2022-09-07T08:30:07.884Z,62.19
2022-09-07T08:31:00.846Z,62.19
2022-09-07T08:32:00.900Z,62.19
2022-09-07T08:33:00.822Z,62.29
2022-09-07T08:34:00.803Z,62.29
2022-09-07T08:35:00.894Z,62.26
2022-09-07T08:36:00.769Z,62.06
2022-09-07T08:37:00.753Z,61.66
2022-09-07T08:38:00.741Z,61.96
2022-09-07T08:39:00.790Z,62.06
2022-09-07T08:40:00.854Z,62.16
2022-09-07T08:41:00.728Z,62.16
2022-09-07T08:42:00.690Z,62.06
2022-09-07T08:43:00.672Z,62.36
2022-09-07T08:44:00.786Z,62.46
2022-09-07T08:45:00.649Z,61.93
2022-09-07T08:46:00.695Z,61.83
2022-09-07T08:47:00.699Z,62.03
2022-09-07T08:48:00.615Z,62.03
2022-09-07T08:49:00.609Z,61.60
2022-09-07T08:50:00.583Z,61.80
2022-09-07T08:51:00.581Z,61.80
2022-09-07T08:52:00.559Z,61.30
2022-09-07T08:53:00.540Z,61.40
2022-09-07T08:54:00.538Z,61.52
2022-09-07T08:55:00.639Z,62.03
2022-09-07T08:56:00.509Z,62.13
2022-09-07T08:58:01.486Z,62.03
2022-09-07T08:59:00.478Z,62.00
2022-09-07T09:00:00.461Z,62.00
2022-09-07T09:04:17.888Z,61.57
2022-09-07T09:05:18.025Z,61.44
2022-09-07T09:06:01.500Z,61.24
2022-09-07T09:07:00.569Z,61.14
2022-09-07T09:08:00.350Z,60.91
2022-09-07T09:09:00.351Z,60.81
2022-09-07T09:10:00.331Z,60.68
2022-09-07T09:11:00.308Z,60.58
2022-09-07T09:12:00.300Z,60.45
2022-09-07T09:13:00.312Z,60.28
2022-09-07T09:14:00.292Z,60.58
2022-09-07T09:15:00.272Z,60.75
2022-09-07T09:16:00.311Z,60.45
2022-09-07T09:17:00.240Z,60.75
2022-09-07T09:18:00.222Z,60.55
2022-09-07T09:19:00.229Z,59.95
2022-09-07T09:20:00.199Z,60.15
2022-09-07T09:21:00.176Z,60.55
2022-09-07T09:22:00.179Z,60.25
2022-09-07T09:23:00.157Z,59.85
2022-09-07T09:24:00.199Z,60.15
2022-09-07T09:25:00.141Z,60.32
2022-09-07T09:26:00.119Z,59.92
2022-09-07T09:27:00.124Z,59.92
2022-09-07T09:28:00.105Z,59.89
2022-09-07T09:29:00.097Z,59.39
2022-09-07T09:30:00.097Z,59.19
2022-09-07T09:31:00.131Z,59.30
2022-09-07T09:32:00.042Z,59.47
2022-09-07T09:33:00.027Z,58.80
2022-09-07T09:34:00.018Z,59.30
2022-09-07T09:35:00.016Z,59.39
2022-09-07T09:35:59.997Z,59.30
2022-09-07T09:36:59.976Z,59.30
2022-09-07T09:37:59.978Z,59.49
2022-09-07T09:38:59.947Z,59.59
2022-09-07T09:40:02.794Z,59.56
2022-09-07T09:40:59.935Z,59.59
2022-09-07T09:41:59.957Z,59.97
2022-09-07T09:42:59.899Z,59.77
2022-09-07T09:43:59.886Z,59.56
2022-09-07T09:44:59.887Z,59.66
2022-09-07T09:46:15.128Z,59.74
2022-09-07T09:48:00.864Z,59.04
2022-09-07T09:48:59.824Z,59.14
2022-09-07T09:49:59.816Z,59.04
2022-09-07T09:53:00.826Z,58.94
2022-09-07T09:53:59.757Z,59.06
2022-09-07T09:55:17.188Z,59.34
2022-09-07T09:56:00.746Z,59.53
2022-09-07T09:56:59.724Z,59.34
2022-09-07T10:00:04.252Z,58.81
2022-09-07T10:04:01.406Z,59.70
2022-09-07T10:04:59.626Z,59.70
2022-09-07T10:05:59.612Z,59.68
2022-09-07T10:06:59.598Z,59.68
2022-09-07T10:07:59.596Z,59.55
2022-09-07T10:08:59.578Z,58.45
2022-09-07T10:09:59.573Z,58.45
2022-09-07T10:10:59.551Z,58.55
2022-09-07T10:12:07.747Z,58.48
2022-09-07T10:13:00.543Z,58.88
2022-09-07T10:13:59.494Z,59.48
2022-09-07T10:14:59.484Z,59.25
2022-09-07T10:15:59.536Z,59.35
2022-09-07T10:16:59.509Z,59.35
2022-09-07T10:17:59.509Z,59.65
2022-09-07T10:18:59.544Z,59.12
2022-09-07T10:19:59.439Z,58.92
2022-09-07T10:20:59.416Z,59.22
2022-09-07T10:21:59.405Z,59.42
2022-09-07T10:22:59.393Z,59.52
2022-09-07T10:23:59.374Z,59.72
2022-09-07T10:24:59.365Z,59.75
2022-09-07T10:25:59.362Z,60.05
2022-09-07T10:26:59.335Z,60.05
2022-09-07T10:27:59.328Z,59.95
2022-09-07T10:29:07.039Z,60.15
2022-09-07T10:30:00.310Z,60.12
2022-09-07T10:30:59.368Z,59.92
2022-09-07T10:31:59.294Z,59.82
2022-09-07T10:32:59.264Z,59.82
2022-09-07T10:35:00.244Z,59.62
2022-09-07T10:35:59.285Z,59.49
2022-09-07T10:36:59.208Z,59.30
2022-09-07T10:37:59.209Z,59.42
2022-09-07T10:39:00.164Z,59.72
2022-09-07T10:40:00.662Z,59.42
2022-09-07T10:40:59.164Z,59.32
2022-09-07T10:41:59.185Z,59.42
2022-09-07T10:44:00.125Z,59.92
2022-09-07T10:44:59.119Z,59.92
2022-09-07T10:45:59.399Z,59.59
2022-09-07T10:46:59.123Z,59.49
2022-09-07T10:47:59.166Z,59.39
2022-09-07T10:48:59.083Z,59.00
2022-09-07T10:51:05.095Z,59.56
2022-09-07T10:52:00.028Z,59.36
2022-09-07T10:52:59.004Z,59.27
2022-09-07T10:55:00.019Z,59.36
2022-09-07T10:55:58.987Z,59.06
2022-09-07T10:56:58.945Z,59.17
2022-09-07T10:57:58.956Z,59.47
2022-09-07T10:59:02.975Z,59.66
2022-09-07T11:00:14.285Z,59.56
2022-09-07T11:00:59.916Z,59.47
2022-09-07T11:01:58.894Z,59.69
2022-09-07T11:03:59.960Z,59.69
2022-09-07T11:04:58.857Z,59.66
2022-09-07T11:05:58.859Z,59.56
2022-09-07T11:06:58.833Z,59.79
2022-09-07T11:07:58.819Z,59.79
2022-09-07T11:09:59.796Z,59.66
2022-09-07T11:10:58.786Z,59.66
2022-09-07T11:12:02.711Z,59.66
2022-09-07T11:12:58.756Z,59.77
2022-09-07T11:14:12.673Z,59.77
2022-09-07T11:14:59.724Z,59.64
2022-09-07T11:15:58.790Z,59.23
2022-09-07T11:16:58.991Z,59.53
2022-09-07T11:17:58.740Z,59.64
2022-09-07T11:19:59.702Z,59.34
2022-09-07T11:20:58.655Z,59.31
2022-09-07T11:21:58.715Z,59.51
2022-09-07T11:22:58.639Z,59.28
2022-09-07T11:23:58.619Z,59.18
2022-09-07T11:25:59.587Z,58.88
2022-09-07T11:26:58.578Z,59.08
2022-09-07T11:27:58.572Z,59.18
2022-09-07T11:29:59.545Z,58.98
2022-09-07T11:31:00.339Z,58.88
2022-09-07T11:31:58.517Z,58.98
2022-09-07T11:32:58.498Z,58.88
2022-09-07T11:34:59.508Z,59.28
2022-09-07T11:35:58.476Z,59.18
2022-09-07T11:36:58.457Z,59.28
2022-09-07T11:37:58.436Z,59.18
2022-09-07T11:38:58.423Z,59.51
2022-09-07T11:39:58.465Z,59.81
2022-09-07T11:40:58.406Z,59.91
2022-09-07T11:41:58.450Z,60.11
2022-09-07T11:42:58.377Z,60.30
2022-09-07T11:43:58.372Z,60.30
2022-09-07T11:44:58.344Z,60.21
2022-09-07T11:45:58.370Z,60.17
2022-09-07T11:46:58.352Z,60.57
2022-09-07T11:47:58.305Z,60.77
2022-09-07T11:48:58.298Z,60.68
2022-09-07T11:49:59.552Z,60.27
2022-09-07T11:50:58.268Z,60.27
2022-09-07T11:51:58.267Z,60.27
2022-09-07T11:52:58.243Z,59.98
2022-09-07T11:53:58.240Z,60.08
2022-09-07T11:54:58.227Z,59.75
2022-09-07T11:55:58.215Z,59.85
2022-09-07T11:56:58.232Z,59.95
2022-09-07T11:57:58.189Z,59.75
2022-09-07T11:58:58.175Z,59.55
2022-09-07T11:59:58.182Z,59.55
2022-09-07T12:00:58.142Z,59.55
2022-09-07T12:01:58.138Z,59.65
2022-09-07T12:03:00.349Z,59.65
2022-09-07T12:03:58.260Z,60.14
2022-09-07T12:04:58.157Z,59.85
2022-09-07T12:05:58.086Z,59.75
2022-09-07T12:06:58.076Z,59.55
2022-09-07T12:07:58.086Z,59.65
2022-09-07T12:08:58.047Z,59.65
2022-09-07T12:09:58.047Z,59.45
2022-09-07T12:10:58.030Z,59.52
2022-09-07T12:11:58.027Z,59.03
2022-09-07T12:12:57.997Z,58.70
2022-09-07T12:13:57.984Z,58.10
2022-09-07T12:14:57.978Z,58.50
2022-09-07T12:15:58.019Z,58.60
2022-09-07T12:16:57.983Z,58.50
2022-09-07T12:17:57.971Z,58.50
2022-09-07T12:18:57.920Z,58.67
2022-09-07T12:19:57.916Z,58.37
2022-09-07T12:20:57.906Z,58.25
2022-09-07T12:21:57.898Z,57.65
2022-09-07T12:23:02.230Z,58.04
2022-09-07T12:23:58.858Z,57.85
2022-09-07T12:24:57.847Z,57.75
2022-09-07T12:25:57.835Z,57.25
2022-09-07T12:26:57.839Z,57.38
2022-09-07T12:27:57.843Z,57.38
2022-09-07T12:28:57.801Z,57.87
2022-09-07T12:29:57.791Z,58.07
2022-09-07T12:30:57.830Z,58.17
2022-09-07T12:31:59.680Z,58.17
2022-09-07T12:32:59.048Z,57.90
2022-09-07T12:33:57.726Z,58.10
2022-09-07T12:34:57.721Z,58.43
2022-09-07T12:35:57.727Z,58.43
2022-09-07T12:36:57.720Z,58.62
2022-09-07T12:37:57.691Z,58.73
2022-09-07T12:38:57.658Z,58.73
2022-09-07T12:39:57.733Z,58.83
2022-09-07T12:40:57.681Z,59.05
2022-09-07T12:43:07.688Z,59.75
2022-09-07T12:43:58.638Z,59.55
2022-09-07T12:44:57.587Z,59.55
2022-09-07T12:45:57.633Z,59.85
2022-09-07T12:46:57.563Z,60.05
2022-09-07T12:47:57.547Z,60.08
2022-09-07T12:48:57.537Z,59.98
2022-09-07T12:49:57.510Z,59.88
2022-09-07T12:50:57.525Z,59.88
2022-09-07T12:52:05.201Z,60.08
2022-09-07T12:52:58.529Z,60.08
2022-09-07T12:53:58.038Z,60.27
2022-09-07T12:55:23.526Z,60.08
2022-09-07T12:57:58.477Z,59.98
2022-09-07T12:58:57.435Z,60.17
2022-09-07T12:59:57.427Z,60.08
2022-09-07T13:00:57.496Z,60.17
2022-09-07T13:01:57.568Z,60.27
2022-09-07T13:02:57.371Z,60.17
2022-09-07T13:03:57.365Z,60.27
2022-09-07T13:04:57.389Z,60.27
2022-09-07T13:05:57.349Z,60.47
2022-09-07T13:07:04.592Z,60.47
2022-09-07T13:08:07.232Z,60.08
2022-09-07T13:08:58.363Z,60.27
2022-09-07T13:09:57.290Z,60.27
2022-09-07T13:10:57.308Z,60.14
2022-09-07T13:11:57.289Z,60.14
2022-09-07T13:12:58.014Z,59.95
2022-09-07T13:14:06.250Z,59.95
2022-09-07T13:14:58.238Z,59.95
2022-09-07T13:15:57.246Z,59.95
2022-09-07T13:17:58.171Z,59.75
2022-09-07T13:18:57.165Z,59.75
2022-09-07T13:19:57.153Z,59.65
2022-09-07T13:20:57.139Z,59.65
2022-09-07T13:21:57.129Z,59.85
2022-09-07T13:22:57.122Z,60.05
2022-09-07T13:23:57.329Z,59.85
2022-09-07T13:24:57.754Z,59.85
2022-09-07T13:25:57.069Z,59.65
2022-09-07T13:26:57.076Z,59.75
2022-09-07T13:27:57.069Z,59.75
2022-09-07T13:28:57.044Z,59.85
2022-09-07T13:29:57.048Z,59.75
2022-09-07T13:30:57.077Z,60.14
2022-09-07T13:31:56.999Z,59.75
2022-09-07T13:33:12.272Z,60.05
2022-09-07T13:33:57.996Z,59.65
2022-09-07T13:34:56.959Z,60.05
2022-09-07T13:35:56.949Z,59.65